Aeroporto :
LOGIN :

Iscrizione | Disclaimer

   EN    FR    IT 

 










Sommario :    VFR   VFR Marginale   IFR   IFR Intensivo   IFR Molto Intensivo
Visibilità : 
Base nubi : 
>= 8 km
>= 3000ft
5 / 8 km
1000 / 3000 ft
1500m / 5 km
500 / 1000 ft
800 / 1500m
200 / 500 ft
< 800m
< 200 ft
Simboli :   Temporali  Nebbia  Neve Forte  Precipitazioni Forti  Vento > 20 kt
SIGMETs :   Varie  Temporali  Ghiacco  Turbolenza  Onda orograficha  Ceneri Vulcaniche






- Altitudine del aeroporto : 20 ft


EBFN - Koksijde

ULTIMO METAR :
  • 181855Z AUTO 32010KT 9999 FEW030/// 06/01 Q1031 BLU

METARs OBSOLETI :
  • 181825Z AUTO 31008KT 9999 FEW026/// 06/02 Q1030 BLU
  • 181755Z AUTO 31007KT 9999 NCD 06/01 Q1030 BLU
  • 181725Z AUTO 31008KT 9999 FEW027/// 06/01 Q1030 BLU
  • 181655Z AUTO 31007KT 9999 FEW027/// 06/01 Q1029 BLU
  • 181625Z AUTO 32008KT 9999 BKN025/// 06/02 Q1029 BLU
  • 181613Z AUTO 31007KT 9999 BKN025/// 06/02 Q1029 BLU

TAF TAF EBFN
Valido dal 18 a 19 ore il 19 a 07 ore UTC


181541Z 1819/1907 34013KT 9999 SCT020
PROB30
TEMPO 1902/1907 6000 -SHRA BKN013



MetMap, La meteo Aeronautica in un colpo d'occhio ! - Copyright ORBIFLY Dicembre 2007 - Disclaimer

ORBIFLY MET'MAP TEAM :

Programmazione e sviluppo : Alexandra Zaïnal
Concezione : Baudouin d'Aumeries
Aiuto per la programmazione : Marc-Olivier Méhu
Supporto tecnico e logistico : Manuel Goepfert
Aiuto per la traduzione : Arnaldo La Scala

Contatto : metmap@orbifly.com




FONTI E CREDITI :

   NOAA